Time;durP1;ratioP1;P1;durP2;ratioP2;P2;SDS_P1;SDS_P2;PMS_P1;PMS_P2;Temp;Humidity;BMP_temperature;BMP_pressure;BME280_temperature;BME280_humidity;BME280_pressure;Samples;Min_cycle;Max_cycle;Signal;HPM_P1;HPM_P2
2021/10/22 00:00:05;;;;;;;4.00;1.70;;;;;;;;;;5083682;28;24901;-60
2021/10/22 00:02:30;;;;;;;3.33;1.90;;;;;;;;;;5084108;28;24523;-60
2021/10/22 00:04:55;;;;;;;3.87;1.67;;;;;;;;;;5082427;28;25005;-60
2021/10/22 00:07:21;;;;;;;5.60;1.90;;;;;;;;;;5080750;28;24896;-60
2021/10/22 00:09:46;;;;;;;4.30;1.73;;;;;;;;;;5082013;28;24395;-60
2021/10/22 00:12:11;;;;;;;6.70;2.50;;;;;;;;;;5083716;28;24398;-59
2021/10/22 00:14:36;;;;;;;5.45;2.20;;;;;;;;;;5085863;28;24402;-60
2021/10/22 00:17:01;;;;;;;4.10;1.70;;;;;;;;;;5085323;28;25115;-60
2021/10/22 00:19:26;;;;;;;6.60;1.90;;;;;;;;;;5080367;28;24390;-60
2021/10/22 00:21:52;;;;;;;5.32;1.98;;;;;;;;;;5081894;28;24402;-59
2021/10/22 00:24:17;;;;;;;3.45;1.65;;;;;;;;;;5080213;28;24417;-60
2021/10/22 00:26:42;;;;;;;4.83;1.90;;;;;;;;;;5083612;28;24485;-60
2021/10/22 00:29:07;;;;;;;4.60;1.83;;;;;;;;;;5083016;28;25199;-60
2021/10/22 00:31:32;;;;;;;6.70;2.20;;;;;;;;;;5085257;28;24456;-60
2021/10/22 00:33:58;;;;;;;3.03;1.80;;;;;;;;;;5083726;28;24429;-60
2021/10/22 00:36:23;;;;;;;6.10;1.70;;;;;;;;;;5080338;28;24451;-60
2021/10/22 00:38:49;;;;;;;4.05;1.83;;;;;;;;;;5079970;28;24497;-60
2021/10/22 00:41:15;;;;;;;5.13;2.20;;;;;;;;;;5083313;28;24513;-60
2021/10/22 00:43:40;;;;;;;4.93;2.00;;;;;;;;;;5085000;28;24390;-59
2021/10/22 00:46:06;;;;;;;6.93;2.53;;;;;;;;;;5083236;28;24808;-60
2021/10/22 00:48:31;;;;;;;6.80;2.50;;;;;;;;;;5088895;28;24400;-60
2021/10/22 00:51:00;;;;;;;7.13;2.33;;;;;;;;;;5103572;28;24394;-61
2021/10/22 00:53:26;;;;;;;7.35;2.33;;;;;;;;;;5100009;28;24552;-61
2021/10/22 00:55:51;;;;;;;6.75;2.03;;;;;;;;;;5100060;28;24386;-61
2021/10/22 00:58:17;;;;;;;6.13;2.23;;;;;;;;;;5105066;28;24731;-60
2021/10/22 01:00:42;;;;;;;4.10;2.20;;;;;;;;;;5105222;28;24510;-63
2021/10/22 01:03:09;;;;;;;5.70;2.20;;;;;;;;;;5103328;28;24448;-59
2021/10/22 01:05:34;;;;;;;4.53;2.30;;;;;;;;;;5101752;28;24924;-59
2021/10/22 01:07:59;;;;;;;4.37;2.30;;;;;;;;;;5101367;28;24397;-59
2021/10/22 01:10:25;;;;;;;7.18;2.40;;;;;;;;;;5099182;28;24865;-59
2021/10/22 01:12:50;;;;;;;5.70;1.80;;;;;;;;;;5104977;28;24452;-58
2021/10/22 01:15:15;;;;;;;7.47;2.40;;;;;;;;;;5102969;28;24440;-60
2021/10/22 01:17:43;;;;;;;6.00;2.33;;;;;;;;;;5105279;28;24675;-60
2021/10/22 01:20:10;;;;;;;4.85;2.00;;;;;;;;;;5098870;28;24421;-60
2021/10/22 01:22:39;;;;;;;5.57;2.20;;;;;;;;;;5099758;28;24386;-61
2021/10/22 01:25:06;;;;;;;6.18;2.28;;;;;;;;;;5100334;28;24398;-60
2021/10/22 01:27:31;;;;;;;5.77;2.23;;;;;;;;;;5104637;28;24990;-60
2021/10/22 01:29:56;;;;;;;6.60;2.20;;;;;;;;;;5104410;28;24393;-60
2021/10/22 01:32:22;;;;;;;7.17;2.30;;;;;;;;;;5102956;28;25066;-60
2021/10/22 01:34:47;;;;;;;7.97;2.53;;;;;;;;;;5103048;28;24609;-60
2021/10/22 01:37:12;;;;;;;5.75;2.42;;;;;;;;;;5099262;28;24926;-60
2021/10/22 01:39:37;;;;;;;5.35;2.35;;;;;;;;;;5100703;28;24776;-60
2021/10/22 01:42:03;;;;;;;5.13;2.10;;;;;;;;;;5100791;28;24408;-60
2021/10/22 01:44:28;;;;;;;6.17;2.07;;;;;;;;;;5104494;28;25012;-60
2021/10/22 01:46:53;;;;;;;5.33;2.13;;;;;;;;;;5104666;28;24389;-60
2021/10/22 01:49:18;;;;;;;6.57;2.10;;;;;;;;;;5092160;28;24402;-61
2021/10/22 01:51:44;;;;;;;6.97;2.00;;;;;;;;;;5078488;28;24398;-61
2021/10/22 01:54:09;;;;;;;5.40;1.97;;;;;;;;;;5078503;28;24432;-61
2021/10/22 01:56:34;;;;;;;5.63;2.20;;;;;;;;;;5082406;28;24527;-61
2021/10/22 01:59:00;;;;;;;5.97;2.08;;;;;;;;;;5083246;28;24421;-61
2021/10/22 02:01:26;;;;;;;8.77;2.22;;;;;;;;;;5083875;28;25132;-61
2021/10/22 02:03:51;;;;;;;5.43;2.22;;;;;;;;;;5084301;28;24402;-59
2021/10/22 02:06:16;;;;;;;5.83;2.30;;;;;;;;;;5080055;28;24824;-59
2021/10/22 02:08:42;;;;;;;4.68;1.90;;;;;;;;;;5078433;28;24885;-59
2021/10/22 02:11:07;;;;;;;8.70;3.10;;;;;;;;;;5078127;28;24538;-58
2021/10/22 02:13:32;;;;;;;6.10;2.20;;;;;;;;;;5083975;28;24904;-61
2021/10/22 02:15:57;;;;;;;3.90;2.13;;;;;;;;;;5081991;28;24739;-59
2021/10/22 02:18:23;;;;;;;6.28;2.30;;;;;;;;;;5082146;28;24393;-59
2021/10/22 02:20:48;;;;;;;5.87;2.30;;;;;;;;;;5083308;28;25009;-59
2021/10/22 02:23:13;;;;;;;5.70;2.20;;;;;;;;;;5081809;28;25237;-60
2021/10/22 02:25:38;;;;;;;3.87;1.90;;;;;;;;;;5078228;28;24401;-59
2021/10/22 02:28:04;;;;;;;8.17;2.30;;;;;;;;;;5079733;28;24394;-58
2021/10/22 02:30:29;;;;;;;4.30;1.97;;;;;;;;;;5081580;28;24392;-59
2021/10/22 02:32:54;;;;;;;4.70;2.20;;;;;;;;;;5083727;28;24486;-59
2021/10/22 02:35:19;;;;;;;6.80;2.47;;;;;;;;;;5081632;28;24399;-59
2021/10/22 02:37:45;;;;;;;5.97;2.50;;;;;;;;;;5083355;28;24425;-59
2021/10/22 02:40:11;;;;;;;4.37;1.90;;;;;;;;;;5081839;28;24450;-59
2021/10/22 02:42:37;;;;;;;6.47;2.45;;;;;;;;;;5085898;28;24466;-59
2021/10/22 02:45:02;;;;;;;6.73;2.87;;;;;;;;;;5082170;28;24503;-59
2021/10/22 02:47:27;;;;;;;6.68;2.33;;;;;;;;;;5087567;28;24385;-58
2021/10/22 02:49:53;;;;;;;7.63;2.40;;;;;;;;;;5102506;28;24494;-59
2021/10/22 02:52:18;;;;;;;5.50;2.30;;;;;;;;;;5105919;28;24733;-59
2021/10/22 02:54:43;;;;;;;5.72;2.55;;;;;;;;;;5104065;27;24389;-58
2021/10/22 02:57:08;;;;;;;6.63;2.50;;;;;;;;;;5102006;28;24382;-59
2021/10/22 02:59:33;;;;;;;5.80;2.30;;;;;;;;;;5107688;28;24419;-59
2021/10/22 03:01:59;;;;;;;4.22;2.13;;;;;;;;;;5107910;28;24481;-59
2021/10/22 03:04:24;;;;;;;7.60;2.50;;;;;;;;;;5105960;28;24389;-59
2021/10/22 03:06:49;;;;;;;7.47;2.47;;;;;;;;;;5105944;28;24384;-59
2021/10/22 03:09:14;;;;;;;5.40;2.17;;;;;;;;;;5101742;28;24398;-59
2021/10/22 03:11:39;;;;;;;5.03;2.50;;;;;;;;;;5103721;28;24390;-60
2021/10/22 03:14:04;;;;;;;7.33;2.80;;;;;;;;;;5105565;28;24396;-60
2021/10/22 03:16:30;;;;;;;5.33;2.20;;;;;;;;;;5107654;28;24978;-59
2021/10/22 03:18:55;;;;;;;4.43;2.00;;;;;;;;;;5107377;28;24390;-59
2021/10/22 03:21:20;;;;;;;5.68;2.28;;;;;;;;;;5103450;28;24482;-59
2021/10/22 03:23:46;;;;;;;4.40;2.00;;;;;;;;;;5101736;28;24947;-59
2021/10/22 03:26:11;;;;;;;5.40;2.13;;;;;;;;;;5103423;28;24390;-59
2021/10/22 03:28:36;;;;;;;5.43;2.25;;;;;;;;;;5107091;28;24770;-59
2021/10/22 03:31:01;;;;;;;4.75;2.00;;;;;;;;;;5106406;27;24967;-59
2021/10/22 03:33:26;;;;;;;3.90;2.20;;;;;;;;;;5104157;28;24390;-59
2021/10/22 03:35:51;;;;;;;4.38;2.20;;;;;;;;;;5104091;28;24397;-60
2021/10/22 03:38:17;;;;;;;7.05;2.53;;;;;;;;;;5099823;28;24420;-62
2021/10/22 03:40:42;;;;;;;7.60;2.07;;;;;;;;;;5100054;28;24422;-59
2021/10/22 03:43:07;;;;;;;6.05;2.60;;;;;;;;;;5101886;28;24409;-59
2021/10/22 03:45:32;;;;;;;5.53;2.30;;;;;;;;;;5104185;28;24931;-59
2021/10/22 03:47:57;;;;;;;5.70;2.20;;;;;;;;;;5105083;28;24431;-58
2021/10/22 03:50:25;;;;;;;3.97;2.20;;;;;;;;;;5084261;28;24927;-59
2021/10/22 03:52:50;;;;;;;5.00;2.40;;;;;;;;;;5083342;28;24956;-60
2021/10/22 03:55:15;;;;;;;4.90;2.70;;;;;;;;;;5079413;28;24401;-60
2021/10/22 03:57:40;;;;;;;4.25;2.60;;;;;;;;;;5081451;28;24422;-59
2021/10/22 04:00:06;;;;;;;3.20;2.20;;;;;;;;;;5079199;28;24467;-59
2021/10/22 04:02:31;;;;;;;4.97;2.30;;;;;;;;;;5085502;28;24402;-60
2021/10/22 04:04:57;;;;;;;6.43;2.17;;;;;;;;;;5084713;28;24513;-60
2021/10/22 04:07:22;;;;;;;5.63;2.43;;;;;;;;;;5083297;28;24872;-60
2021/10/22 04:09:47;;;;;;;6.90;2.60;;;;;;;;;;5079122;28;24468;-60
2021/10/22 04:12:12;;;;;;;3.60;2.10;;;;;;;;;;5079391;28;24452;-60
2021/10/22 04:14:37;;;;;;;4.18;1.90;;;;;;;;;;5084914;28;24839;-60
2021/10/22 04:17:02;;;;;;;4.95;2.30;;;;;;;;;;5084597;28;24403;-60
2021/10/22 04:19:28;;;;;;;7.20;2.20;;;;;;;;;;5083313;28;24494;-59
2021/10/22 04:21:54;;;;;;;9.90;2.50;;;;;;;;;;5082758;28;24989;-60
2021/10/22 04:24:19;;;;;;;5.65;2.30;;;;;;;;;;5079066;28;24403;-60
2021/10/22 04:26:45;;;;;;;5.22;2.10;;;;;;;;;;5079240;28;24391;-60
2021/10/22 04:29:11;;;;;;;4.57;2.28;;;;;;;;;;5084281;28;24443;-60
2021/10/22 04:31:36;;;;;;;5.40;2.27;;;;;;;;;;5024832;28;1698468;-60
2021/10/22 04:34:02;;;;;;;3.13;2.30;;;;;;;;;;5085614;28;24471;-59
2021/10/22 04:36:27;;;;;;;5.47;2.20;;;;;;;;;;5080340;28;24616;-60
2021/10/22 04:41:36;;;;;;;4.13;2.20;;;;;;;;;;5083328;28;24460;-60
2021/10/22 04:44:02;;;;;;;5.37;2.03;;;;;;;;;;5083592;28;24791;-60
2021/10/22 04:46:27;;;;;;;7.40;2.53;;;;;;;;;;5085404;28;24398;-60
2021/10/22 04:48:52;;;;;;;5.65;2.20;;;;;;;;;;5091930;28;24639;-60
2021/10/22 04:51:17;;;;;;;5.47;2.07;;;;;;;;;;5099884;28;24421;-60
2021/10/22 04:53:42;;;;;;;5.67;2.63;;;;;;;;;;5100338;28;24417;-61
2021/10/22 04:56:08;;;;;;;5.05;2.60;;;;;;;;;;5101496;28;24404;-60
2021/10/22 04:58:33;;;;;;;4.17;2.10;;;;;;;;;;5105851;28;24397;-60
2021/10/22 05:00:58;;;;;;;4.65;2.40;;;;;;;;;;5104340;28;24951;-61
2021/10/22 05:03:24;;;;;;;8.13;2.50;;;;;;;;;;5103441;28;24386;-61
2021/10/22 05:05:49;;;;;;;5.18;2.50;;;;;;;;;;5099925;28;24800;-61
2021/10/22 05:08:14;;;;;;;5.60;2.38;;;;;;;;;;5099463;28;24520;-60
2021/10/22 05:10:39;;;;;;;8.30;2.80;;;;;;;;;;5102987;28;24424;-61
2021/10/22 05:13:05;;;;;;;4.30;2.20;;;;;;;;;;5103120;28;24538;-60
2021/10/22 05:15:30;;;;;;;3.40;2.03;;;;;;;;;;5105542;28;24389;-60
2021/10/22 05:17:55;;;;;;;3.37;2.27;;;;;;;;;;5104800;28;24398;-61
2021/10/22 05:20:20;;;;;;;4.15;2.28;;;;;;;;;;5098927;28;24433;-60
2021/10/22 05:22:46;;;;;;;3.95;2.15;;;;;;;;;;5099631;28;24532;-61
2021/10/22 05:25:11;;;;;;;4.57;2.60;;;;;;;;;;5100931;28;24889;-60
2021/10/22 05:27:37;;;;;;;5.00;2.13;;;;;;;;;;5104788;28;25012;-59
2021/10/22 05:30:03;;;;;;;4.90;2.70;;;;;;;;;;5104540;28;24434;-61
2021/10/22 05:32:28;;;;;;;5.13;2.50;;;;;;;;;;5103402;28;24991;-60
2021/10/22 05:34:53;;;;;;;3.35;1.98;;;;;;;;;;5102994;28;24409;-59
2021/10/22 05:37:19;;;;;;;4.50;2.20;;;;;;;;;;5098913;28;24432;-59
2021/10/22 05:39:44;;;;;;;6.82;2.40;;;;;;;;;;5098920;28;24772;-60
2021/10/22 05:42:09;;;;;;;4.50;2.30;;;;;;;;;;5102579;28;24823;-60
2021/10/22 05:44:34;;;;;;;5.77;2.30;;;;;;;;;;5104879;28;24467;-60
2021/10/22 05:46:59;;;;;;;4.87;2.40;;;;;;;;;;5104707;28;24806;-60
2021/10/22 05:49:24;;;;;;;5.30;2.30;;;;;;;;;;5091304;28;24405;-60
2021/10/22 05:51:50;;;;;;;4.70;2.43;;;;;;;;;;5078490;28;24436;-60
2021/10/22 05:54:16;;;;;;;4.68;2.13;;;;;;;;;;5078212;28;24394;-60
2021/10/22 05:56:41;;;;;;;3.70;2.07;;;;;;;;;;5082195;28;24396;-60
2021/10/22 05:59:06;;;;;;;6.70;2.33;;;;;;;;;;5082043;28;24799;-60
2021/10/22 06:01:32;;;;;;;5.25;2.25;;;;;;;;;;5083972;28;24510;-59
2021/10/22 06:03:57;;;;;;;3.57;1.97;;;;;;;;;;5083881;28;24922;-59
2021/10/22 06:06:22;;;;;;;4.43;2.40;;;;;;;;;;5077988;28;24414;-59
2021/10/22 06:08:48;;;;;;;5.17;2.30;;;;;;;;;;5078444;28;24410;-59
2021/10/22 06:11:13;;;;;;;3.30;2.00;;;;;;;;;;5079668;28;24778;-60
2021/10/22 06:13:39;;;;;;;4.93;2.50;;;;;;;;;;5083883;28;24394;-60
2021/10/22 06:16:04;;;;;;;3.60;2.50;;;;;;;;;;5082086;28;24855;-60
2021/10/22 06:18:30;;;;;;;3.90;2.20;;;;;;;;;;5084050;28;24406;-59
2021/10/22 06:21:07;;;;;;;6.43;2.50;;;;;;;;;;5079482;28;24426;-59
2021/10/22 06:26:16;;;;;;;5.15;2.20;;;;;;;;;;5080348;28;24443;-60
2021/10/22 06:28:42;;;;;;;6.40;2.30;;;;;;;;;;5083594;28;24971;-59
2021/10/22 06:31:09;;;;;;;5.78;2.63;;;;;;;;;;5081410;28;24422;-59
2021/10/22 06:33:34;;;;;;;5.57;2.38;;;;;;;;;;5081954;28;24919;-60
2021/10/22 06:35:59;;;;;;;5.77;2.37;;;;;;;;;;5079873;28;24421;-60
2021/10/22 06:38:24;;;;;;;3.30;1.77;;;;;;;;;;5077680;28;24406;-59
2021/10/22 06:40:53;;;;;;;3.78;2.20;;;;;;;;;;5079695;28;24414;-59
2021/10/22 06:43:20;;;;;;;3.53;2.40;;;;;;;;;;5083367;28;24473;-59
2021/10/22 06:45:45;;;;;;;7.57;2.60;;;;;;;;;;5083766;28;24397;-59
2021/10/22 06:48:10;;;;;;;4.03;2.07;;;;;;;;;;5082057;28;24387;-59
2021/10/22 06:50:35;;;;;;;5.60;2.37;;;;;;;;;;5097690;28;24397;-58
2021/10/22 06:53:00;;;;;;;5.70;2.73;;;;;;;;;;5100152;28;24398;-59
2021/10/22 06:55:26;;;;;;;6.45;2.80;;;;;;;;;;5097861;28;24428;-59
2021/10/22 06:57:51;;;;;;;4.43;2.40;;;;;;;;;;5103680;28;24394;-59
2021/10/22 07:00:16;;;;;;;5.70;2.90;;;;;;;;;;5101663;28;25004;-59
2021/10/22 07:02:51;;;;;;;5.40;2.05;;;;;;;;;;5103520;28;24999;-59
2021/10/22 07:05:36;;;;;;;4.37;2.30;;;;;;;;;;5101620;28;24434;-59
2021/10/22 07:08:02;;;;;;;5.07;2.50;;;;;;;;;;5099858;28;24458;-59
2021/10/22 07:10:28;;;;;;;3.10;2.10;;;;;;;;;;5097751;28;24462;-59
2021/10/22 07:12:53;;;;;;;5.93;2.45;;;;;;;;;;5101653;28;24406;-59
2021/10/22 07:15:18;;;;;;;4.30;2.65;;;;;;;;;;5103101;28;24474;-60
2021/10/22 07:17:45;;;;;;;7.33;2.40;;;;;;;;;;5103808;28;24396;-59
2021/10/22 07:20:11;;;;;;;6.28;2.42;;;;;;;;;;5099574;28;24428;-60
2021/10/22 07:22:40;;;;;;;3.60;2.10;;;;;;;;;;5098016;28;24416;-60
2021/10/22 07:25:05;;;;;;;5.15;2.35;;;;;;;;;;5102915;28;24393;-59
2021/10/22 07:27:31;;;;;;;6.00;2.50;;;;;;;;;;5105649;28;24811;-59
2021/10/22 07:29:57;;;;;;;6.35;2.70;;;;;;;;;;5106884;28;25297;-59
2021/10/22 07:32:22;;;;;;;4.38;2.30;;;;;;;;;;5104424;28;24524;-59
2021/10/22 07:34:47;;;;;;;4.90;2.30;;;;;;;;;;5105459;28;24562;-59
2021/10/22 07:37:12;;;;;;;4.93;2.40;;;;;;;;;;5101465;28;24810;-59
2021/10/22 07:39:37;;;;;;;5.27;2.30;;;;;;;;;;5103200;28;24907;-60
2021/10/22 07:42:02;;;;;;;4.70;2.33;;;;;;;;;;5102906;28;25033;-60
2021/10/22 07:44:28;;;;;;;6.63;2.33;;;;;;;;;;5106962;28;24378;-59
2021/10/22 07:46:54;;;;;;;5.18;2.28;;;;;;;;;;5106625;28;24394;-59
2021/10/22 07:49:20;;;;;;;3.73;2.00;;;;;;;;;;5094239;28;24399;-60
2021/10/22 07:51:45;;;;;;;5.10;2.30;;;;;;;;;;5081085;28;24398;-59
2021/10/22 07:54:11;;;;;;;4.40;2.30;;;;;;;;;;5080797;28;24907;-59
2021/10/22 07:56:36;;;;;;;3.95;2.00;;;;;;;;;;5084610;28;24398;-59
2021/10/22 07:59:03;;;;;;;7.67;2.40;;;;;;;;;;5084354;28;24437;-60
2021/10/22 08:01:31;;;;;;;4.78;2.00;;;;;;;;;;5085503;28;25021;-59
2021/10/22 08:03:56;;;;;;;4.20;2.17;;;;;;;;;;5084526;28;24410;-59
2021/10/22 08:06:21;;;;;;;3.27;1.83;;;;;;;;;;5080735;28;24397;-59
2021/10/22 08:08:46;;;;;;;5.07;2.40;;;;;;;;;;5080797;28;24382;-60
2021/10/22 08:11:15;;;;;;;3.90;2.10;;;;;;;;;;5082140;28;24393;-60
2021/10/22 08:13:41;;;;;;;5.15;1.98;;;;;;;;;;5085433;28;24920;-60
2021/10/22 08:16:06;;;;;;;5.75;2.20;;;;;;;;;;5080125;28;24421;-60
2021/10/22 08:18:32;;;;;;;4.93;2.60;;;;;;;;;;5072967;28;24399;-61
2021/10/22 08:21:02;;;;;;;4.50;2.10;;;;;;;;;;5060414;28;24430;-59
2021/10/22 08:23:28;;;;;;;6.82;2.60;;;;;;;;;;5081809;28;24414;-59
2021/10/22 08:25:53;;;;;;;6.40;2.30;;;;;;;;;;5085063;28;24966;-60
2021/10/22 08:28:18;;;;;;;4.97;1.83;;;;;;;;;;5081299;28;24398;-60
2021/10/22 08:30:44;;;;;;;6.67;2.50;;;;;;;;;;5080025;28;24426;-60
2021/10/22 08:33:11;;;;;;;4.50;2.00;;;;;;;;;;5081450;28;24394;-60
2021/10/22 08:35:37;;;;;;;3.30;1.90;;;;;;;;;;5082610;28;24413;-60
2021/10/22 08:38:04;;;;;;;5.57;2.20;;;;;;;;;;5085335;28;24437;-60
2021/10/22 08:40:29;;;;;;;8.88;4.55;;;;;;;;;;5083539;28;24476;-60
2021/10/22 08:42:54;;;;;;;7.05;4.28;;;;;;;;;;5083223;28;24402;-60
2021/10/22 08:45:20;;;;;;;5.87;4.03;;;;;;;;;;5079480;28;24955;-60
2021/10/22 08:47:46;;;;;;;3.30;2.20;;;;;;;;;;5084501;28;24405;-61
2021/10/22 08:50:13;;;;;;;8.65;5.63;;;;;;;;;;5103325;28;24473;-60
2021/10/22 08:52:40;;;;;;;3.72;2.65;;;;;;;;;;5105275;28;24967;-60
2021/10/22 08:55:07;;;;;;;6.55;3.60;;;;;;;;;;5105282;28;24413;-61
2021/10/22 08:57:32;;;;;;;5.68;4.20;;;;;;;;;;5103093;28;24484;-61
2021/10/22 08:59:59;;;;;;;8.40;4.73;;;;;;;;;;5101378;28;24510;-59
2021/10/22 09:02:25;;;;;;;4.05;3.00;;;;;;;;;;5099714;28;24907;-59
2021/10/22 09:04:56;;;;;;;7.32;3.30;;;;;;;;;;5101759;28;24405;-61
2021/10/22 09:07:36;;;;;;;6.90;5.03;;;;;;;;;;5102973;28;25350;-61
2021/10/22 09:10:07;;;;;;;6.72;4.75;;;;;;;;;;5104769;28;24402;-61
2021/10/22 09:12:43;;;;;;;5.03;3.40;;;;;;;;;;5102939;28;24446;-60
2021/10/22 09:15:08;;;;;;;5.95;2.80;;;;;;;;;;5101031;28;24397;-59
2021/10/22 09:17:35;;;;;;;4.70;2.10;;;;;;;;;;5099347;28;24397;-59
2021/10/22 09:20:00;;;;;;;3.90;2.30;;;;;;;;;;5100489;28;24414;-60
2021/10/22 09:22:31;;;;;;;7.03;2.75;;;;;;;;;;5104730;28;24939;-60
2021/10/22 09:25:01;;;;;;;4.63;2.30;;;;;;;;;;5104464;28;24398;-59
2021/10/22 09:27:30;;;;;;;2.65;1.65;;;;;;;;;;5102451;28;24798;-60
2021/10/22 09:29:55;;;;;;;3.80;2.40;;;;;;;;;;5100900;28;24469;-60
2021/10/22 09:32:20;;;;;;;3.87;2.17;;;;;;;;;;5098268;28;24971;-60
2021/10/22 09:34:50;;;;;;;4.80;2.40;;;;;;;;;;5099222;28;24405;-59
2021/10/22 09:37:15;;;;;;;7.10;3.50;;;;;;;;;;5104212;28;24506;-60
2021/10/22 09:39:40;;;;;;;7.22;2.30;;;;;;;;;;5104210;28;24398;-58
2021/10/22 09:42:13;;;;;;;5.70;2.17;;;;;;;;;;5102377;28;24489;-59
2021/10/22 09:44:39;;;;;;;4.68;1.90;;;;;;;;;;5098806;28;24410;-60
2021/10/22 09:47:04;;;;;;;4.78;2.05;;;;;;;;;;5098924;28;24390;-61
2021/10/22 09:49:30;;;;;;;5.47;2.58;;;;;;;;;;5083843;28;24413;-60
2021/10/22 09:51:56;;;;;;;5.45;2.05;;;;;;;;;;5076023;28;24410;-60
2021/10/22 09:54:27;;;;;;;3.33;1.80;;;;;;;;;;5083538;28;24896;-60
2021/10/22 09:56:53;;;;;;;4.40;1.90;;;;;;;;;;5084060;28;24400;-60
2021/10/22 09:59:23;;;;;;;4.20;2.10;;;;;;;;;;5079872;28;24501;-59
2021/10/22 10:01:48;;;;;;;3.33;1.70;;;;;;;;;;5078367;28;24418;-60
2021/10/22 10:04:14;;;;;;;5.18;2.00;;;;;;;;;;5080359;28;24409;-60
2021/10/22 10:06:40;;;;;;;4.60;2.17;;;;;;;;;;5080040;28;24424;-59
2021/10/22 10:09:08;;;;;;;2.60;1.60;;;;;;;;;;5081845;28;24459;-59
2021/10/22 10:11:33;;;;;;;3.90;1.90;;;;;;;;;;5083752;28;24468;-60
2021/10/22 10:14:00;;;;;;;3.45;1.83;;;;;;;;;;5082063;28;24444;-61
2021/10/22 10:16:26;;;;;;;2.97;1.80;;;;;;;;;;5078471;28;24549;-60
2021/10/22 10:18:54;;;;;;;2.88;1.80;;;;;;;;;;5078404;28;24492;-60
2021/10/22 10:21:21;;;;;;;3.63;1.80;;;;;;;;;;5079621;28;25019;-60
2021/10/22 10:23:47;;;;;;;3.63;1.70;;;;;;;;;;5083890;28;24451;-60
2021/10/22 10:26:23;;;;;;;2.50;1.50;;;;;;;;;;5082104;28;24386;-58
2021/10/22 10:28:50;;;;;;;3.40;1.55;;;;;;;;;;5064861;28;24410;-59
2021/10/22 10:31:29;;;;;;;3.73;1.70;;;;;;;;;;5057646;28;24461;-59
2021/10/22 10:33:55;;;;;;;1.85;1.67;;;;;;;;;;5059668;28;24387;-59
2021/10/22 10:36:39;;;;;;;2.83;1.90;;;;;;;;;;5063497;28;25344;-60
2021/10/22 10:39:04;;;;;;;3.37;1.70;;;;;;;;;;5063088;28;24399;-60
2021/10/22 10:41:33;;;;;;;2.40;1.70;;;;;;;;;;5059895;28;24476;-60
2021/10/22 10:44:18;;;;;;;3.45;1.70;;;;;;;;;;5059479;28;24402;-60
2021/10/22 10:46:43;;;;;;;2.60;1.40;;;;;;;;;;5066087;28;24944;-60
2021/10/22 10:49:08;;;;;;;2.37;1.83;;;;;;;;;;5102126;28;24454;-60
2021/10/22 10:51:34;;;;;;;3.20;1.90;;;;;;;;;;5103820;28;24720;-60
2021/10/22 10:54:03;;;;;;;3.40;1.90;;;;;;;;;;5101693;28;24517;-59
2021/10/22 10:56:33;;;;;;;3.25;1.92;;;;;;;;;;5097933;28;24939;-59
2021/10/22 10:58:58;;;;;;;3.40;1.98;;;;;;;;;;5101563;28;24409;-60
2021/10/22 11:01:25;;;;;;;4.65;2.10;;;;;;;;;;5105772;28;24452;-60
2021/10/22 11:03:50;;;;;;;3.25;1.90;;;;;;;;;;5107540;27;24394;-63
2021/10/22 11:06:27;;;;;;;3.42;1.88;;;;;;;;;;5105418;28;24400;-60
2021/10/22 11:08:53;;;;;;;2.30;1.70;;;;;;;;;;5103503;28;24943;-59
2021/10/22 11:11:26;;;;;;;3.90;1.87;;;;;;;;;;5101588;28;24436;-59
2021/10/22 11:13:53;;;;;;;3.70;1.90;;;;;;;;;;5105646;27;24392;-60
2021/10/22 11:16:25;;;;;;;5.30;2.00;;;;;;;;;;5105199;27;24477;-60
2021/10/22 11:18:50;;;;;;;3.40;1.58;;;;;;;;;;5107440;28;24432;-60
2021/10/22 11:21:15;;;;;;;2.75;1.95;;;;;;;;;;5105381;28;24968;-61
2021/10/22 11:23:41;;;;;;;2.20;1.60;;;;;;;;;;5101210;28;24550;-61
2021/10/22 11:26:06;;;;;;;3.17;1.90;;;;;;;;;;5101842;27;25293;-60
2021/10/22 11:28:31;;;;;;;2.90;1.80;;;;;;;;;;5105336;28;24749;-60
2021/10/22 11:30:57;;;;;;;3.35;1.77;;;;;;;;;;5090383;28;24446;-60
2021/10/22 11:33:25;;;;;;;2.40;1.73;;;;;;;;;;5075504;28;24399;-58
2021/10/22 11:35:50;;;;;;;2.90;1.98;;;;;;;;;;5083293;28;24457;-58
2021/10/22 11:38:16;;;;;;;3.25;1.70;;;;;;;;;;5080503;28;24418;-59
2021/10/22 11:40:41;;;;;;;3.17;1.60;;;;;;;;;;5082790;28;24633;-60
2021/10/22 11:43:06;;;;;;;5.97;2.10;;;;;;;;;;5084563;28;24410;-60
2021/10/22 11:45:32;;;;;;;4.33;1.80;;;;;;;;;;5090901;28;24452;-59
2021/10/22 11:47:57;;;;;;;4.13;1.85;;;;;;;;;;5106749;28;24440;-59
2021/10/22 11:50:30;;;;;;;4.03;1.80;;;;;;;;;;5101245;28;24390;-60
2021/10/22 11:53:12;;;;;;;3.88;1.83;;;;;;;;;;5101084;28;24747;-59
2021/10/22 11:55:42;;;;;;;2.17;1.43;;;;;;;;;;5102992;28;24393;-60
2021/10/22 11:58:11;;;;;;;4.43;1.70;;;;;;;;;;5104835;28;24393;-60
2021/10/22 12:00:37;;;;;;;3.35;1.70;;;;;;;;;;5105508;28;24452;-60
2021/10/22 12:03:02;;;;;;;3.70;1.95;;;;;;;;;;5105940;28;24481;-59
2021/10/22 12:05:28;;;;;;;3.00;1.50;;;;;;;;;;5102488;27;24939;-59
2021/10/22 12:07:57;;;;;;;4.18;1.80;;;;;;;;;;5101157;28;24489;-60
2021/10/22 12:10:22;;;;;;;3.17;1.80;;;;;;;;;;5100550;28;24402;-60
2021/10/22 12:12:50;;;;;;;4.63;1.90;;;;;;;;;;5106340;28;24962;-60
2021/10/22 12:15:18;;;;;;;2.63;1.80;;;;;;;;;;5104138;28;24431;-60
2021/10/22 12:17:44;;;;;;;2.10;1.60;;;;;;;;;;5106304;28;24469;-58
2021/10/22 12:20:09;;;;;;;2.77;1.63;;;;;;;;;;5102260;28;25041;-60
2021/10/22 12:22:39;;;;;;;2.50;1.47;;;;;;;;;;5100675;28;24535;-60
2021/10/22 12:25:12;;;;;;;5.00;2.00;;;;;;;;;;5102306;28;24861;-59
2021/10/22 12:27:37;;;;;;;4.13;1.70;;;;;;;;;;5106387;28;24796;-59
2021/10/22 12:30:04;;;;;;;3.83;1.70;;;;;;;;;;5105817;28;24958;-60
2021/10/22 12:32:30;;;;;;;4.40;1.80;;;;;;;;;;5103705;28;24463;-59
2021/10/22 12:34:56;;;;;;;4.15;1.80;;;;;;;;;;5102265;28;24394;-59
2021/10/22 12:37:41;;;;;;;2.83;1.70;;;;;;;;;;5099954;28;24413;-60
2021/10/22 12:40:17;;;;;;;6.85;1.85;;;;;;;;;;5101974;28;24456;-60
2021/10/22 12:42:42;;;;;;;3.80;1.60;;;;;;;;;;5105428;28;24390;-60
2021/10/22 12:45:10;;;;;;;3.10;1.70;;;;;;;;;;5103042;28;24409;-60
2021/10/22 12:47:39;;;;;;;3.40;2.03;;;;;;;;;;5085615;28;24395;-60
2021/10/22 12:50:05;;;;;;;3.55;1.50;;;;;;;;;;5083762;28;24551;-60
2021/10/22 12:52:30;;;;;;;3.10;1.87;;;;;;;;;;5079712;28;25434;-60
2021/10/22 12:54:55;;;;;;;2.95;1.85;;;;;;;;;;5079873;28;25064;-60
2021/10/22 12:57:22;;;;;;;3.83;1.73;;;;;;;;;;5083157;28;24409;-59
2021/10/22 12:59:47;;;;;;;2.80;1.65;;;;;;;;;;5085087;28;24406;-60
2021/10/22 13:29:38;;;;;;;3.17;1.90;;;;;;;;;;5064679;28;24383;-60
2021/10/22 13:32:03;;;;;;;7.35;2.00;;;;;;;;;;5073138;28;24431;-59
2021/10/22 13:34:29;;;;;;;4.47;2.03;;;;;;;;;;5061174;28;24430;-60
2021/10/22 13:36:54;;;;;;;4.10;1.77;;;;;;;;;;5058673;28;24446;-60
2021/10/22 13:39:19;;;;;;;4.80;2.00;;;;;;;;;;5060184;28;24556;-60
2021/10/22 13:41:45;;;;;;;2.93;1.90;;;;;;;;;;5064390;28;24909;-60
2021/10/22 13:44:11;;;;;;;3.57;2.03;;;;;;;;;;5073032;28;24406;-60
2021/10/22 13:46:36;;;;;;;5.15;1.60;;;;;;;;;;5101088;28;24390;-61
2021/10/22 13:49:02;;;;;;;4.07;2.00;;;;;;;;;;5102375;28;24412;-59
2021/10/22 13:51:27;;;;;;;3.92;1.50;;;;;;;;;;5102852;28;24450;-59
2021/10/22 13:53:53;;;;;;;4.00;1.70;;;;;;;;;;5081046;28;24492;-59
2021/10/22 13:56:18;;;;;;;4.00;1.75;;;;;;;;;;5061931;28;24398;-60
2021/10/22 13:58:43;;;;;;;2.67;1.70;;;;;;;;;;5059909;28;24526;-60
2021/10/22 14:01:09;;;;;;;3.90;1.80;;;;;;;;;;5058325;28;24429;-60
2021/10/22 14:03:34;;;;;;;2.70;1.70;;;;;;;;;;5070925;28;24980;-62
2021/10/22 14:06:01;;;;;;;3.50;1.60;;;;;;;;;;5080156;28;24401;-61
2021/10/22 14:08:26;;;;;;;2.40;1.40;;;;;;;;;;5081816;28;24397;-59
2021/10/22 14:10:53;;;;;;;4.03;1.90;;;;;;;;;;5084201;28;24764;-60
2021/10/22 14:13:27;;;;;;;5.65;1.98;;;;;;;;;;5080274;28;25032;-60
2021/10/22 14:16:08;;;;;;;2.08;1.40;;;;;;;;;;5078707;28;24905;-60
2021/10/22 14:18:55;;;;;;;5.50;1.80;;;;;;;;;;5078272;28;24466;-60
2021/10/22 14:29:13;;;;;;;5.60;2.00;;;;;;;;;;5077999;28;24389;-60
2021/10/22 14:31:39;;;;;;;2.72;1.60;;;;;;;;;;5077987;28;24422;-60
2021/10/22 14:34:05;;;;;;;3.53;1.60;;;;;;;;;;5085553;28;24394;-60
2021/10/22 14:36:30;;;;;;;4.75;2.00;;;;;;;;;;5084363;28;24401;-60
2021/10/22 14:38:55;;;;;;;2.63;1.80;;;;;;;;;;5087807;28;24412;-60
2021/10/22 14:41:21;;;;;;;3.67;1.65;;;;;;;;;;5085730;28;24525;-60
2021/10/22 14:43:49;;;;;;;2.43;1.70;;;;;;;;;;5090806;28;24401;-60
2021/10/22 14:48:49;;;;;;;3.75;1.85;;;;;;;;;;5101916;28;24409;-60
2021/10/22 14:51:23;;;;;;;3.13;1.63;;;;;;;;;;5106075;28;24919;-59
2021/10/22 14:53:58;;;;;;;4.90;1.92;;;;;;;;;;5108096;28;24432;-60
2021/10/22 14:56:23;;;;;;;2.05;1.50;;;;;;;;;;5105777;28;24436;-60
2021/10/22 14:58:48;;;;;;;3.60;1.80;;;;;;;;;;5104342;28;24973;-59
2021/10/22 15:01:14;;;;;;;4.57;1.77;;;;;;;;;;5101735;28;24488;-60
2021/10/22 15:03:40;;;;;;;4.00;2.03;;;;;;;;;;5105971;28;24396;-60
2021/10/22 15:06:05;;;;;;;5.20;2.87;;;;;;;;;;5104062;28;24947;-59
2021/10/22 15:08:30;;;;;;;4.47;2.30;;;;;;;;;;5107504;28;24425;-59
2021/10/22 15:10:55;;;;;;;4.33;1.83;;;;;;;;;;5107747;28;24509;-59
2021/10/22 15:13:20;;;;;;;3.77;1.97;;;;;;;;;;5103821;28;25141;-59
2021/10/22 15:15:46;;;;;;;4.53;1.88;;;;;;;;;;5102007;28;24493;-59
2021/10/22 15:18:11;;;;;;;4.10;1.73;;;;;;;;;;5103549;28;24421;-60
2021/10/22 15:20:38;;;;;;;4.67;1.80;;;;;;;;;;5105461;28;24433;-60